Time;durP1;ratioP1;P1;durP2;ratioP2;P2;SDS_P1;SDS_P2;PMS_P1;PMS_P2;Temp;Humidity;BMP_temperature;BMP_pressure;BME280_temperature;BME280_humidity;BME280_pressure;Samples;Min_cycle;Max_cycle;Signal;HPM_P1;HPM_P2
2023/10/05 00:01:27;;;;;;;5.03;2.10;;;11.90;99.90;11.20;100500;;;;570706;246;24142;-78
2023/10/05 00:03:53;;;;;;;6.00;2.33;;;11.90;99.90;11.20;100496;;;;575490;244;24063;-79
2023/10/05 00:06:24;;;;;;;6.07;2.23;;;11.90;99.90;11.20;100500;;;;575780;246;24063;-79
2023/10/05 00:08:53;;;;;;;5.07;2.50;;;11.90;99.90;11.20;100501;;;;583038;243;24061;-79
2023/10/05 00:11:23;;;;;;;4.23;2.27;;;11.90;99.90;11.30;100498;;;;572844;244;25095;-79
2023/10/05 00:13:54;;;;;;;7.50;2.93;;;11.90;99.90;11.20;100497;;;;576712;244;24056;-78
2023/10/05 00:16:22;;;;;;;9.93;2.57;;;11.90;99.90;11.20;100497;;;;576135;246;24058;-79
2023/10/05 00:18:51;;;;;;;7.13;2.60;;;11.90;99.90;11.20;100497;;;;574508;246;24073;-79
2023/10/05 00:21:19;;;;;;;6.93;3.47;;;11.90;99.90;11.30;100507;;;;578047;243;35206;-79
2023/10/05 00:23:53;;;;;;;8.80;2.90;;;11.90;99.90;11.30;100495;;;;571757;246;24046;-79
2023/10/05 00:26:20;;;;;;;4.60;2.57;;;11.90;99.90;11.20;100485;;;;576066;243;24110;-79
2023/10/05 00:28:55;;;;;;;7.37;2.33;;;11.90;99.90;11.20;100486;;;;575887;243;24081;-79
2023/10/05 00:31:14;;;;;;;6.00;2.40;;;11.90;99.90;11.20;100476;;;;576188;245;24064;-79
2023/10/05 00:33:43;;;;;;;4.43;1.97;;;11.90;99.90;11.30;100480;;;;575848;246;24059;-80
2023/10/05 00:36:13;;;;;;;3.73;2.53;;;11.90;99.90;11.30;100474;;;;576162;244;24057;-79
2023/10/05 00:38:39;;;;;;;8.03;2.53;;;11.90;99.90;11.30;100467;;;;576170;246;24039;-80
2023/10/05 00:41:08;;;;;;;4.53;2.50;;;12.00;99.90;11.30;100461;;;;576244;246;24077;-79
2023/10/05 00:43:35;;;;;;;4.00;2.30;;;12.00;99.90;11.40;100457;;;;576142;243;24042;-78
2023/10/05 00:46:03;;;;;;;6.57;2.60;;;12.00;99.90;11.40;100446;;;;575879;246;24068;-79
2023/10/05 00:48:34;;;;;;;2.43;2.13;;;12.00;99.90;11.40;100443;;;;573433;246;24068;-78
2023/10/05 00:51:06;;;;;;;6.37;2.27;;;12.00;99.90;11.40;100447;;;;575835;243;24110;-78
2023/10/05 00:53:29;;;;;;;12.63;3.13;;;12.00;99.90;11.40;100445;;;;575917;246;24103;-79
2023/10/05 00:56:07;;;;;;;7.20;3.00;;;12.00;99.90;11.40;100438;;;;577240;246;35130;-79
2023/10/05 00:58:37;;;;;;;4.03;2.40;;;12.10;99.90;11.40;100435;;;;576239;244;24045;-79
2023/10/05 01:00:53;;;;;;;4.27;2.10;;;12.00;99.90;11.40;100439;;;;582957;244;24133;-78
2023/10/05 01:03:25;;;;;;;12.10;2.60;;;12.00;99.90;11.40;100436;;;;575803;245;24056;-79
2023/10/05 01:06:12;;;;;;;3.87;2.20;;;12.10;99.90;11.40;100429;;;;575928;244;24106;-79
2023/10/05 01:08:32;;;;;;;2.73;1.87;;;12.00;99.90;11.30;100432;;;;582015;243;24073;-80
2023/10/05 01:11:00;;;;;;;2.87;1.93;;;12.00;99.90;11.30;100419;;;;580347;244;24056;-79
2023/10/05 01:13:32;;;;;;;7.90;3.77;;;12.00;99.90;11.30;100422;;;;570295;246;38944;-78
2023/10/05 01:15:56;;;;;;;8.03;2.67;;;12.00;99.90;11.30;100415;;;;575270;246;24129;-78
2023/10/05 01:18:29;;;;;;;8.07;2.00;;;12.00;99.90;11.30;100413;;;;575315;246;24055;-78
2023/10/05 01:20:52;;;;;;;4.70;2.27;;;12.00;99.90;11.30;100414;;;;576162;245;24059;-78
2023/10/05 01:23:19;;;;;;;5.50;2.70;;;12.00;99.90;11.30;100411;;;;576603;246;24087;-79
2023/10/05 01:25:47;;;;;;;5.87;2.50;;;12.00;99.90;11.30;100414;;;;571712;246;24056;-79
2023/10/05 01:28:15;;;;;;;3.47;2.07;;;12.00;99.90;11.30;100414;;;;576281;246;25103;-79
2023/10/05 01:30:43;;;;;;;7.73;2.23;;;12.00;99.90;11.30;100414;;;;576241;246;24046;-78
2023/10/05 01:33:11;;;;;;;6.53;2.30;;;12.00;99.90;11.30;100413;;;;575912;246;24081;-79
2023/10/05 01:35:42;;;;;;;5.07;2.37;;;12.00;99.90;11.30;100405;;;;576235;246;24079;-78
2023/10/05 01:38:07;;;;;;;5.10;2.37;;;12.00;99.90;11.30;100403;;;;576301;246;24074;-78
2023/10/05 01:40:36;;;;;;;3.90;2.13;;;12.00;99.90;11.30;100403;;;;576048;244;24047;-79
2023/10/05 01:43:03;;;;;;;3.90;2.30;;;12.00;99.90;11.30;100389;;;;576108;243;24046;-79
2023/10/05 01:45:34;;;;;;;4.47;2.60;;;12.00;99.90;11.30;100388;;;;581022;244;24062;-79
2023/10/05 01:48:05;;;;;;;3.53;2.00;;;12.00;99.90;11.40;100388;;;;576150;246;24108;-80
2023/10/05 01:50:29;;;;;;;5.63;2.53;;;12.00;99.90;11.40;100373;;;;576410;243;24108;-79
2023/10/05 01:53:07;;;;;;;5.73;2.33;;;12.10;99.90;11.40;100367;;;;576062;246;24048;-79
2023/10/05 01:55:32;;;;;;;7.10;1.97;;;12.10;99.90;11.50;100354;;;;576432;243;24064;-78
2023/10/05 01:57:58;;;;;;;8.90;3.17;;;12.10;99.90;11.50;100351;;;;570974;243;24073;-78
2023/10/05 02:00:26;;;;;;;5.83;2.77;;;12.20;99.90;11.50;100351;;;;575416;246;24069;-79
2023/10/05 02:02:55;;;;;;;2.93;2.20;;;12.20;99.90;11.60;100349;;;;575580;246;24047;-78
2023/10/05 02:05:24;;;;;;;9.47;3.40;;;12.20;99.90;11.60;100347;;;;575949;245;24087;-79
2023/10/05 02:07:52;;;;;;;5.27;2.37;;;12.30;99.90;11.60;100350;;;;575811;246;25103;-79
2023/10/05 02:10:20;;;;;;;5.83;2.97;;;12.20;99.90;11.60;100344;;;;575249;246;24053;-78
2023/10/05 02:12:54;;;;;;;10.17;2.60;;;12.30;99.90;11.60;100349;;;;575935;246;25092;-79
2023/10/05 02:15:28;;;;;;;6.53;2.40;;;12.20;99.90;11.60;100339;;;;575711;246;24063;-79
2023/10/05 02:17:52;;;;;;;3.07;1.70;;;12.30;99.90;11.60;100334;;;;573057;246;24072;-78
2023/10/05 02:23:02;;;;;;;4.67;2.63;;;12.30;99.90;11.70;100335;;;;575642;246;24106;-79
2023/10/05 02:25:34;;;;;;;4.07;2.63;;;12.30;99.90;11.60;100346;;;;575784;246;24086;-79
2023/10/05 02:28:02;;;;;;;4.63;2.57;;;12.30;99.90;11.70;100336;;;;576101;244;24107;-79
2023/10/05 02:30:31;;;;;;;4.60;2.53;;;12.30;99.90;11.70;100345;;;;582415;244;24082;-79
2023/10/05 02:32:59;;;;;;;7.77;2.53;;;12.30;99.90;11.70;100331;;;;576425;245;24106;-79
2023/10/05 02:35:32;;;;;;;7.50;2.60;;;12.30;99.90;11.70;100317;;;;576620;246;24058;-78
2023/10/05 02:37:54;;;;;;;8.33;2.20;;;12.30;99.90;11.70;100317;;;;576524;246;24076;-78
2023/10/05 02:40:35;;;;;;;7.40;2.40;;;12.30;99.90;11.70;100322;;;;576572;246;24062;-79
2023/10/05 02:42:56;;;;;;;8.73;3.30;;;12.30;99.90;11.70;100319;;;;576704;245;24083;-78
2023/10/05 02:45:24;;;;;;;3.17;2.30;;;12.30;99.90;11.70;100308;;;;576376;244;24040;-78
2023/10/05 02:47:51;;;;;;;2.87;2.53;;;12.30;99.90;11.60;100303;;;;576328;245;24101;-78
2023/10/05 02:50:19;;;;;;;6.30;2.80;;;12.30;99.90;11.60;100306;;;;576354;244;24048;-78
2023/10/05 02:52:47;;;;;;;5.77;2.57;;;12.30;99.90;11.60;100308;;;;576032;246;24039;-79
2023/10/05 02:55:16;;;;;;;3.77;2.30;;;12.30;99.90;11.60;100304;;;;575954;246;24047;-78
2023/10/05 02:57:45;;;;;;;3.37;2.70;;;12.20;99.90;11.60;100309;;;;575942;246;24076;-78
2023/10/05 03:00:15;;;;;;;7.67;2.50;;;12.20;99.90;11.50;100296;;;;575481;246;24053;-78
2023/10/05 03:02:46;;;;;;;5.07;2.57;;;12.20;99.90;11.50;100291;;;;580285;245;24109;-78
2023/10/05 03:05:10;;;;;;;3.30;2.20;;;12.20;99.90;11.40;100282;;;;576019;240;24042;-79
2023/10/05 03:07:40;;;;;;;6.93;3.03;;;12.10;99.90;11.40;100287;;;;576148;246;24086;-78
2023/10/05 03:10:05;;;;;;;7.63;3.20;;;12.10;99.90;11.40;100293;;;;580338;246;24045;-78
2023/10/05 03:12:32;;;;;;;5.93;2.70;;;12.00;99.90;11.30;100288;;;;584000;246;24083;-77
2023/10/05 03:15:05;;;;;;;10.63;3.47;;;12.00;99.90;11.30;100288;;;;550403;254;24101;-78
2023/10/05 03:17:31;;;;;;;8.70;2.83;;;11.90;99.90;11.30;100287;;;;575321;245;24113;-78
2023/10/05 03:19:56;;;;;;;8.53;2.77;;;11.90;99.90;11.20;100280;;;;575819;243;24056;-79
2023/10/05 03:22:24;;;;;;;4.47;2.80;;;11.90;99.90;11.20;100266;;;;575458;246;24051;-78
2023/10/05 03:24:53;;;;;;;4.77;2.33;;;11.80;99.90;11.20;100270;;;;580525;244;24141;-78
2023/10/05 03:27:26;;;;;;;7.73;2.83;;;11.80;99.90;11.10;100260;;;;575632;244;24078;-79
2023/10/05 03:29:58;;;;;;;2.83;2.63;;;11.90;99.90;11.10;100250;;;;575363;246;24054;-78
2023/10/05 03:32:28;;;;;;;7.27;3.30;;;11.80;99.90;11.10;100249;;;;575566;240;24095;-79
2023/10/05 03:34:58;;;;;;;4.90;2.63;;;11.70;99.90;11.10;100242;;;;575718;246;24057;-78
2023/10/05 03:37:29;;;;;;;8.40;3.97;;;11.70;99.90;11.00;100246;;;;575543;244;24107;-79
2023/10/05 03:40:43;;;;;;;9.23;3.60;;;11.60;99.90;11.00;100246;;;;575938;244;24209;-79
2023/10/05 03:42:23;;;;;;;8.60;3.37;;;11.60;99.90;10.90;100233;;;;569800;246;24120;-79
2023/10/05 03:45:10;;;;;;;6.10;3.60;;;11.60;99.90;10.90;100231;;;;576782;245;24161;-79
2023/10/05 03:47:37;;;;;;;8.33;3.20;;;11.50;99.90;10.90;100229;;;;576359;246;24057;-79
2023/10/05 03:50:06;;;;;;;5.80;3.23;;;11.50;99.90;10.90;100219;;;;571793;243;24043;-79
2023/10/05 03:52:32;;;;;;;7.30;3.10;;;11.50;99.90;10.80;100230;;;;571977;246;24125;-79
2023/10/05 03:55:10;;;;;;;9.20;3.83;;;11.50;99.90;10.90;100234;;;;576387;246;24084;-79
2023/10/05 03:57:30;;;;;;;8.17;4.50;;;11.50;99.90;10.80;100231;;;;570253;246;35196;-78
2023/10/05 03:59:55;;;;;;;6.17;3.57;;;11.50;99.90;10.80;100224;;;;575899;246;24128;-78
2023/10/05 04:02:23;;;;;;;8.03;3.33;;;11.50;99.90;10.80;100226;;;;575784;246;24158;-78
2023/10/05 04:04:51;;;;;;;7.43;3.73;;;11.50;99.90;10.80;100230;;;;575898;243;24118;-79
2023/10/05 04:07:21;;;;;;;9.70;3.63;;;11.50;99.90;10.80;100228;;;;584635;243;24043;-79
2023/10/05 04:09:47;;;;;;;6.20;2.90;;;11.50;99.90;10.80;100223;;;;575818;244;24066;-79
2023/10/05 04:12:15;;;;;;;7.27;3.37;;;11.50;99.90;10.80;100228;;;;582730;244;24054;-79
2023/10/05 04:14:43;;;;;;;8.77;3.33;;;11.50;99.90;10.80;100222;;;;575681;246;24078;-79
2023/10/05 04:17:11;;;;;;;8.70;3.70;;;11.50;99.90;10.80;100215;;;;575911;246;24058;-79
2023/10/05 04:19:41;;;;;;;4.30;3.47;;;11.50;99.90;10.80;100205;;;;575932;243;24125;-78
2023/10/05 04:22:14;;;;;;;5.30;3.70;;;11.50;99.90;10.80;100201;;;;576068;246;24126;-77
2023/10/05 04:24:39;;;;;;;5.83;3.43;;;11.40;99.90;10.80;100209;;;;575796;243;24156;-78
2023/10/05 04:27:07;;;;;;;5.47;3.43;;;11.40;99.90;10.70;100198;;;;575422;245;24061;-79
2023/10/05 04:29:35;;;;;;;7.53;3.80;;;11.40;99.90;10.70;100183;;;;575536;246;24055;-78
2023/10/05 04:32:03;;;;;;;10.00;3.53;;;11.40;99.90;10.70;100193;;;;575329;246;24105;-79
2023/10/05 04:34:31;;;;;;;13.87;3.90;;;11.40;99.90;10.70;100176;;;;575461;246;24073;-79
2023/10/05 04:36:58;;;;;;;3.93;3.13;;;11.40;99.90;10.70;100182;;;;575478;245;24136;-79
2023/10/05 04:39:30;;;;;;;5.00;3.30;;;11.30;99.90;10.70;100174;;;;575993;246;24074;-78
2023/10/05 04:42:04;;;;;;;10.23;3.90;;;11.30;99.90;10.70;100187;;;;575810;246;24107;-78
2023/10/05 04:44:25;;;;;;;13.60;3.97;;;11.30;99.90;10.70;100167;;;;580136;246;24054;-78
2023/10/05 04:46:53;;;;;;;16.93;4.53;;;11.30;99.90;10.60;100171;;;;575767;246;24117;-79
2023/10/05 04:49:21;;;;;;;9.20;3.90;;;11.30;99.90;10.70;100153;;;;575864;243;24056;-78
2023/10/05 04:51:51;;;;;;;8.63;3.53;;;11.30;99.90;10.70;100162;;;;575960;243;24116;-79
2023/10/05 04:54:25;;;;;;;7.67;3.83;;;11.30;99.90;10.70;100159;;;;575808;246;24066;-78
2023/10/05 05:07:08;;;;;;;10.30;3.73;;;11.30;99.90;10.70;100147;;;;583382;246;24096;-78
2023/10/05 05:09:39;;;;;;;5.97;4.37;;;11.40;99.90;10.70;100135;;;;582976;241;24063;-78
2023/10/05 05:12:08;;;;;;;9.13;3.67;;;11.40;99.90;10.70;100143;;;;571347;246;24062;-79
2023/10/05 05:14:35;;;;;;;6.90;3.97;;;11.40;99.90;10.70;100141;;;;580517;246;24054;-78
2023/10/05 05:17:05;;;;;;;8.67;4.10;;;11.40;99.90;10.80;100130;;;;571061;246;24058;-78
2023/10/05 05:19:35;;;;;;;5.97;4.00;;;11.40;99.90;10.80;100134;;;;576514;246;28328;-79
2023/10/05 05:22:04;;;;;;;10.10;3.33;;;11.50;99.90;10.80;100119;;;;582188;244;24055;-78
2023/10/05 05:24:31;;;;;;;11.07;5.10;;;11.50;99.90;10.80;100116;;;;566289;246;35121;-79
2023/10/05 05:27:45;;;;;;;11.43;4.37;;;11.50;99.90;10.90;100108;;;;575651;246;24077;-79
2023/10/05 05:29:33;;;;;;;5.97;3.77;;;11.50;99.90;10.90;100105;;;;574613;246;24089;-78
2023/10/05 05:32:10;;;;;;;5.77;3.50;;;11.60;99.90;10.90;100096;;;;584638;243;24058;-78
2023/10/05 05:34:41;;;;;;;8.73;3.80;;;11.60;99.90;10.90;100099;;;;573510;246;24080;-78
2023/10/05 05:37:06;;;;;;;7.67;4.40;;;11.60;99.90;10.90;100098;;;;574953;246;24079;-79
2023/10/05 05:39:39;;;;;;;11.77;4.23;;;11.60;99.90;11.00;100094;;;;575360;246;24102;-79
2023/10/05 05:42:07;;;;;;;7.13;4.07;;;11.60;99.90;11.00;100094;;;;576544;243;24119;-78
2023/10/05 05:44:29;;;;;;;8.93;4.67;;;11.70;99.90;11.00;100100;;;;575882;246;24108;-78
2023/10/05 05:46:59;;;;;;;9.40;4.43;;;11.70;99.90;11.10;100094;;;;575734;246;24124;-78
2023/10/05 05:49:27;;;;;;;7.67;4.00;;;11.80;99.90;11.10;100097;;;;575800;243;24063;-79
2023/10/05 05:51:58;;;;;;;8.43;4.03;;;11.80;99.90;11.10;100089;;;;575505;246;25106;-78
2023/10/05 05:54:23;;;;;;;7.07;3.97;;;11.80;99.90;11.20;100087;;;;575962;244;24063;-78
2023/10/05 05:56:54;;;;;;;6.63;4.43;;;11.80;99.90;11.20;100085;;;;575736;246;24047;-78
2023/10/05 05:59:18;;;;;;;7.17;3.60;;;11.90;99.90;11.30;100076;;;;576052;243;24131;-79
2023/10/05 06:01:46;;;;;;;5.17;3.10;;;11.90;99.90;11.30;100083;;;;575817;246;24116;-79
2023/10/05 06:04:14;;;;;;;6.80;4.07;;;12.00;99.90;11.40;100075;;;;575843;246;25138;-78
2023/10/05 06:06:44;;;;;;;8.20;4.47;;;12.00;99.90;11.40;100066;;;;575747;244;24066;-80
2023/10/05 06:09:14;;;;;;;7.37;3.70;;;12.10;99.90;11.40;100073;;;;576739;243;24106;-79
2023/10/05 06:11:42;;;;;;;8.03;3.87;;;12.10;99.90;11.50;100070;;;;576451;246;24051;-79
2023/10/05 06:14:10;;;;;;;5.17;3.77;;;12.20;99.90;11.60;100055;;;;576033;246;24085;-78
2023/10/05 06:16:38;;;;;;;6.33;3.90;;;12.20;99.90;11.60;100055;;;;576324;243;24045;-79
2023/10/05 06:19:06;;;;;;;10.43;4.10;;;12.30;99.90;11.70;100061;;;;576065;243;24124;-78
2023/10/05 06:21:37;;;;;;;5.23;3.90;;;12.30;99.90;11.70;100064;;;;575822;246;24040;-78
2023/10/05 06:24:05;;;;;;;9.63;4.57;;;12.40;99.90;11.80;100078;;;;583343;246;24051;-79
2023/10/05 06:26:33;;;;;;;7.13;3.57;;;12.50;99.90;11.80;100082;;;;575613;246;24052;-79
2023/10/05 06:29:04;;;;;;;4.13;3.33;;;12.60;99.90;11.90;100081;;;;575555;246;24054;-78
2023/10/05 06:31:30;;;;;;;6.37;3.87;;;12.60;99.90;12.00;100077;;;;575811;243;24060;-79
2023/10/05 06:33:58;;;;;;;5.27;3.97;;;12.70;99.90;12.10;100070;;;;575848;246;24040;-79
2023/10/05 06:36:26;;;;;;;7.27;3.80;;;12.70;99.90;12.20;100073;;;;575683;245;24070;-78
2023/10/05 06:38:54;;;;;;;6.47;3.07;;;12.80;99.90;12.30;100081;;;;575671;246;24050;-79
2023/10/05 06:41:22;;;;;;;5.97;3.70;;;12.90;99.90;12.30;100065;;;;576121;246;24059;-79
2023/10/05 06:43:50;;;;;;;12.33;4.57;;;12.90;99.90;12.30;100062;;;;575948;246;24075;-81
2023/10/05 06:46:19;;;;;;;10.77;4.17;;;13.00;99.90;12.30;100049;;;;573457;246;24055;-78
2023/10/05 06:48:45;;;;;;;11.50;3.90;;;13.00;99.90;12.40;100058;;;;571052;246;24080;-79
2023/10/05 06:51:13;;;;;;;11.37;3.80;;;13.00;99.90;12.50;100052;;;;575786;246;24108;-80
2023/10/05 06:53:43;;;;;;;8.73;4.37;;;13.10;99.90;12.50;100050;;;;571066;246;24080;-79
2023/10/05 06:56:11;;;;;;;7.53;3.67;;;13.20;99.90;12.60;100042;;;;573418;246;24072;-79
2023/10/05 06:58:37;;;;;;;8.03;4.10;;;13.30;99.90;12.70;100047;;;;575749;246;24089;-79
2023/10/05 07:01:05;;;;;;;7.47;3.90;;;13.30;99.90;12.70;100040;;;;575863;245;24051;-80
2023/10/05 07:03:33;;;;;;;4.33;3.40;;;13.30;99.90;12.70;100053;;;;575733;246;24071;-78
2023/10/05 07:06:01;;;;;;;8.27;3.80;;;13.40;99.90;12.70;100046;;;;575854;245;24066;-79
2023/10/05 07:08:30;;;;;;;8.60;3.67;;;13.40;99.90;12.70;100036;;;;575415;246;24123;-79
2023/10/05 07:10:58;;;;;;;4.67;3.57;;;13.40;99.90;12.70;100048;;;;572832;248;24077;-79
2023/10/05 07:13:29;;;;;;;9.83;4.23;;;13.40;99.90;12.70;100042;;;;571373;249;24052;-80
2023/10/05 07:15:55;;;;;;;6.70;3.63;;;13.40;99.90;12.70;100043;;;;575335;249;24068;-80
2023/10/05 07:18:25;;;;;;;7.87;3.60;;;13.40;99.90;12.80;100041;;;;571683;247;24067;-79
2023/10/05 07:20:49;;;;;;;7.03;4.03;;;13.40;99.90;12.80;100023;;;;567961;249;24062;-79
2023/10/05 07:23:17;;;;;;;6.83;4.07;;;13.40;99.90;12.80;100025;;;;572260;249;24112;-79
2023/10/05 07:25:45;;;;;;;6.83;4.00;;;13.40;99.90;12.90;100030;;;;572101;248;24054;-79
2023/10/05 07:28:17;;;;;;;5.43;3.73;;;13.70;99.90;13.10;100034;;;;576426;246;24085;-79
2023/10/05 07:30:45;;;;;;;8.05;4.90;;;13.80;99.90;13.20;100031;;;;571303;246;35171;-79
2023/10/05 07:33:14;;;;;;;6.63;3.77;;;13.80;99.90;13.20;100032;;;;551341;255;24102;-79
2023/10/05 07:35:45;;;;;;;8.27;4.10;;;13.80;99.90;13.30;100033;;;;576371;246;24039;-79
2023/10/05 07:38:14;;;;;;;11.03;3.80;;;13.90;99.90;13.30;100031;;;;582860;243;24094;-79
2023/10/05 07:40:42;;;;;;;9.00;3.80;;;13.90;99.90;13.30;100016;;;;575801;243;24066;-79
2023/10/05 07:43:09;;;;;;;8.30;3.70;;;13.90;99.90;13.30;100008;;;;573792;244;24081;-78
2023/10/05 07:45:37;;;;;;;7.60;3.40;;;13.90;99.90;13.30;100021;;;;576051;246;24081;-79
2023/10/05 07:48:06;;;;;;;8.73;3.77;;;14.00;99.90;13.40;100021;;;;576077;243;25096;-79
2023/10/05 07:50:32;;;;;;;9.33;4.00;;;14.00;99.90;13.40;100031;;;;584917;243;24066;-78
2023/10/05 07:53:01;;;;;;;6.90;3.77;;;14.00;99.90;13.40;100028;;;;576119;246;24065;-78
2023/10/05 07:55:29;;;;;;;10.00;3.67;;;14.00;99.90;13.30;100015;;;;575926;246;24044;-80
2023/10/05 07:58:01;;;;;;;6.57;3.73;;;14.00;99.90;13.30;100025;;;;575925;246;24098;-79
2023/10/05 08:00:25;;;;;;;9.10;4.23;;;13.90;99.90;13.30;100029;;;;575538;246;24078;-79
2023/10/05 08:02:53;;;;;;;8.43;4.03;;;13.90;99.90;13.20;100020;;;;575820;245;24040;-80
2023/10/05 08:05:21;;;;;;;4.93;3.80;;;13.80;99.90;13.20;100018;;;;575874;246;24105;-79
2023/10/05 08:07:53;;;;;;;4.83;3.77;;;13.80;99.90;13.20;100024;;;;575857;246;24115;-78
2023/10/05 08:10:19;;;;;;;5.90;3.63;;;13.80;99.90;13.20;100025;;;;579782;246;24185;-77
2023/10/05 08:12:48;;;;;;;5.13;3.33;;;13.90;99.90;13.30;100019;;;;575921;243;24121;-80
2023/10/05 08:15:17;;;;;;;6.00;3.50;;;13.90;99.90;13.30;100014;;;;571386;242;24074;-79
2023/10/05 08:17:42;;;;;;;3.87;3.47;;;13.90;99.90;13.30;100031;;;;580496;246;24066;-79
2023/10/05 08:20:11;;;;;;;5.70;3.77;;;13.90;99.90;13.20;100038;;;;575817;246;24072;-78
2023/10/05 08:22:39;;;;;;;5.93;3.43;;;13.90;99.90;13.30;100031;;;;584668;243;24115;-78
2023/10/05 08:25:11;;;;;;;8.03;3.63;;;13.90;99.90;13.30;100033;;;;575832;243;24093;-79
2023/10/05 08:27:36;;;;;;;4.83;3.20;;;13.90;99.90;13.30;100031;;;;584420;246;24081;-78
2023/10/05 08:30:03;;;;;;;8.53;3.50;;;14.00;99.90;13.60;100025;;;;576349;243;23101;-79
2023/10/05 08:32:36;;;;;;;7.57;2.97;;;14.20;99.90;14.00;100034;;;;586126;243;24051;-79
2023/10/05 08:35:17;;;;;;;8.00;3.50;;;15.20;99.90;14.60;100032;;;;585629;243;24149;-79
2023/10/05 08:37:41;;;;;;;6.43;3.03;;;15.70;99.90;15.10;100018;;;;574871;246;24065;-80
2023/10/05 08:40:06;;;;;;;9.47;3.27;;;15.70;99.90;15.30;100024;;;;576332;246;24070;-79
2023/10/05 08:42:34;;;;;;;8.40;2.80;;;15.90;99.90;15.10;100013;;;;584630;245;24084;-79
2023/10/05 08:44:58;;;;;;;5.50;2.90;;;15.90;99.90;15.00;100005;;;;576229;240;24084;-80
2023/10/05 08:47:26;;;;;;;8.97;3.43;;;15.70;99.90;14.80;100032;;;;575940;244;24039;-79
2023/10/05 08:49:54;;;;;;;7.83;2.67;;;15.60;99.90;14.60;100044;;;;580736;243;24067;-79
2023/10/05 08:52:22;;;;;;;6.53;2.97;;;15.30;99.90;14.40;100034;;;;575680;246;24078;-80
2023/10/05 08:54:51;;;;;;;3.33;2.70;;;15.10;99.90;14.20;100035;;;;575834;246;24073;-79
2023/10/05 08:57:18;;;;;;;4.23;2.07;;;14.90;99.90;14.20;100044;;;;575535;244;24078;-80
2023/10/05 08:59:46;;;;;;;2.83;2.00;;;14.90;99.90;14.20;100037;;;;568732;251;24206;-79
2023/10/05 09:02:18;;;;;;;3.77;2.30;;;14.90;99.90;14.30;100039;;;;562476;253;24134;-80
2023/10/05 09:04:44;;;;;;;5.90;2.90;;;14.90;99.90;14.40;100050;;;;556657;252;24118;-79
2023/10/05 09:07:35;;;;;;;3.67;2.43;;;15.00;99.90;14.40;100056;;;;557567;252;24139;-79
2023/10/05 09:09:58;;;;;;;4.23;2.73;;;15.10;99.90;14.50;100051;;;;556442;252;25253;-79
2023/10/05 09:12:35;;;;;;;7.93;3.43;;;15.10;99.90;14.40;100047;;;;567992;252;24141;-79
2023/10/05 09:15:28;;;;;;;5.70;3.37;;;14.90;99.90;14.30;100049;;;;562848;251;24165;-79
2023/10/05 09:17:58;;;;;;;8.03;2.60;;;15.00;99.90;14.10;100041;;;;565538;252;24144;-79
2023/10/05 09:20:30;;;;;;;7.17;2.73;;;14.80;99.90;13.90;100034;;;;567842;252;24112;-79
2023/10/05 09:22:56;;;;;;;5.47;3.37;;;14.60;99.90;13.90;100034;;;;559933;252;24159;-79
2023/10/05 09:25:27;;;;;;;3.77;2.53;;;14.50;99.90;13.70;100041;;;;576008;246;24141;-79
2023/10/05 09:27:58;;;;;;;8.37;3.30;;;14.40;99.90;13.60;100039;;;;575817;246;24119;-79
2023/10/05 09:30:29;;;;;;;7.50;2.73;;;14.20;99.90;13.30;100039;;;;582738;244;24103;-79
2023/10/05 09:32:52;;;;;;;2.60;2.40;;;13.70;99.90;13.10;100052;;;;575877;246;24123;-79
2023/10/05 09:35:32;;;;;;;4.53;2.80;;;13.50;99.90;12.90;100079;;;;570449;246;24052;-79
2023/10/05 09:38:00;;;;;;;4.03;2.60;;;13.50;99.90;12.70;100087;;;;582989;244;24050;-80
2023/10/05 09:40:28;;;;;;;8.53;3.37;;;13.30;99.90;12.60;100077;;;;576057;246;24098;-81
2023/10/05 09:43:00;;;;;;;5.77;3.30;;;13.10;99.90;12.40;100075;;;;585658;240;24166;-80
2023/10/05 09:45:29;;;;;;;2.83;2.13;;;13.00;99.90;12.40;100063;;;;576302;246;24055;-80
2023/10/05 09:48:03;;;;;;;2.40;1.60;;;12.90;99.90;12.30;100063;;;;572017;244;24102;-81
2023/10/05 09:50:34;;;;;;;2.07;1.50;;;12.80;99.90;12.40;100054;;;;575943;246;24133;-80
2023/10/05 09:52:59;;;;;;;3.73;2.00;;;12.80;99.90;12.30;100065;;;;571265;246;24056;-82
2023/10/05 09:55:29;;;;;;;4.27;1.93;;;12.80;99.90;12.40;100053;;;;575811;246;24123;-81
2023/10/05 09:57:57;;;;;;;1.60;1.50;;;12.90;99.90;12.30;100055;;;;575566;246;24106;-81
2023/10/05 10:02:59;;;;;;;1.90;1.50;;;12.80;99.90;12.20;100051;;;;575413;246;24094;-81
2023/10/05 10:05:36;;;;;;;2.33;1.87;;;12.80;99.90;12.30;100052;;;;579439;246;24146;-81
2023/10/05 10:08:08;;;;;;;5.37;1.57;;;12.90;99.90;12.70;100060;;;;572881;246;24077;-80
2023/10/05 10:10:36;;;;;;;3.67;1.90;;;13.20;99.90;12.70;100067;;;;575695;246;24056;-81
2023/10/05 10:13:10;;;;;;;2.00;1.63;;;13.40;99.90;12.80;100088;;;;571173;246;24121;-80
2023/10/05 10:15:34;;;;;;;5.17;1.67;;;13.50;99.90;13.60;100078;;;;571237;244;24149;-80
2023/10/05 10:18:15;;;;;;;3.43;1.80;;;14.20;99.90;14.20;100089;;;;584181;243;24121;-80
2023/10/05 10:20:47;;;;;;;6.97;1.90;;;15.00;99.90;14.50;100084;;;;575529;246;24136;-81
2023/10/05 10:23:44;;;;;;;2.23;1.70;;;15.60;99.90;14.90;100078;;;;579873;246;24059;-80
2023/10/05 10:25:50;;;;;;;3.33;1.50;;;16.10;99.90;15.20;100081;;;;576629;246;26260;-80
2023/10/05 10:29:05;;;;;;;5.80;1.90;;;16.70;99.90;15.50;100080;;;;570819;244;24102;-80
2023/10/05 10:31:11;;;;;;;3.87;1.77;;;16.70;99.90;15.50;100074;;;;573322;246;24064;-79
2023/10/05 10:33:37;;;;;;;5.57;2.87;;;16.80;99.90;15.50;100076;;;;569079;246;24087;-79
2023/10/05 10:36:04;;;;;;;3.07;2.00;;;16.70;99.90;15.30;100076;;;;575427;246;24060;-80
2023/10/05 10:38:32;;;;;;;3.03;1.83;;;16.50;99.90;15.20;100069;;;;570595;246;24090;-80
2023/10/05 10:41:07;;;;;;;3.83;2.00;;;16.00;99.90;15.00;100078;;;;575529;246;24163;-79
2023/10/05 10:43:32;;;;;;;2.97;2.13;;;16.00;99.90;14.80;100081;;;;579817;246;24081;-80
2023/10/05 10:46:14;;;;;;;4.43;2.30;;;15.80;99.90;14.70;100078;;;;575643;244;24079;-79
2023/10/05 10:48:37;;;;;;;4.63;1.87;;;15.60;99.90;14.60;100076;;;;575487;246;24091;-79
2023/10/05 10:51:10;;;;;;;6.43;1.80;;;15.30;99.90;14.50;100077;;;;570709;246;24056;-79
2023/10/05 10:53:34;;;;;;;2.50;1.63;;;15.30;99.90;14.50;100081;;;;576357;243;24097;-79
2023/10/05 10:56:05;;;;;;;5.07;1.70;;;15.20;99.90;14.50;100075;;;;576480;246;24121;-79
2023/10/05 10:58:34;;;;;;;7.80;2.10;;;15.20;99.90;14.60;100064;;;;576435;246;24089;-79
2023/10/05 11:01:04;;;;;;;2.57;1.80;;;15.30;99.90;14.70;100060;;;;576275;245;24114;-78
2023/10/05 11:03:30;;;;;;;3.50;1.43;;;15.30;99.90;14.70;100067;;;;575501;244;24133;-78
2023/10/05 11:06:00;;;;;;;2.57;1.30;;;15.30;99.90;14.70;100067;;;;580958;244;24051;-78
2023/10/05 11:08:32;;;;;;;3.93;1.50;;;15.30;99.90;14.70;100079;;;;576122;242;24092;-79
2023/10/05 11:11:06;;;;;;;3.80;1.33;;;15.40;99.90;14.80;100061;;;;580979;244;24098;-78
2023/10/05 11:13:30;;;;;;;3.00;1.30;;;15.50;99.90;14.90;100083;;;;575689;244;24086;-79
2023/10/05 11:15:59;;;;;;;2.10;1.60;;;15.60;99.90;15.00;100063;;;;580349;244;24151;-79
2023/10/05 11:18:39;;;;;;;2.83;1.43;;;15.60;99.90;15.10;100077;;;;575348;246;24050;-80
2023/10/05 11:21:18;;;;;;;3.40;1.20;;;15.70;99.90;15.10;100083;;;;575142;246;24086;-80
2023/10/05 11:23:50;;;;;;;4.20;1.30;;;15.80;99.90;15.10;100085;;;;575356;246;24098;-79
2023/10/05 11:28:56;;;;;;;4.43;1.37;;;15.80;99.90;15.10;100085;;;;574839;246;24101;-79
2023/10/05 11:31:33;;;;;;;1.43;1.33;;;15.80;99.90;15.20;100093;;;;574700;246;24143;-79
2023/10/05 11:34:00;;;;;;;6.70;1.33;;;15.80;99.90;15.30;100081;;;;574174;246;24107;-80
2023/10/05 11:36:27;;;;;;;2.83;1.67;;;15.90;99.90;15.60;100086;;;;575397;246;24096;-79